createdAt,value
2022-08-17T00:02:26.167Z,19.20
2022-08-17T00:04:54.691Z,18.90
2022-08-17T00:07:21.622Z,18.80
2022-08-17T00:09:48.390Z,18.70
2022-08-17T00:12:42.595Z,18.60
2022-08-17T00:15:02.433Z,18.50
2022-08-17T00:17:29.184Z,18.60
2022-08-17T00:19:55.870Z,18.60
2022-08-17T00:22:33.695Z,18.60
2022-08-17T00:25:05.312Z,18.60
2022-08-17T00:27:31.985Z,18.60
2022-08-17T00:29:58.624Z,18.60
2022-08-17T00:33:13.838Z,18.60
2022-08-17T00:35:16.053Z,18.60
2022-08-17T00:37:42.875Z,18.70
2022-08-17T00:40:12.983Z,18.70
2022-08-17T00:42:40.110Z,18.70
2022-08-17T00:45:08.563Z,18.80
2022-08-17T00:47:35.336Z,18.80
2022-08-17T00:50:03.152Z,18.70
2022-08-17T00:52:35.015Z,18.50
2022-08-17T00:55:03.008Z,18.30
2022-08-17T00:57:32.844Z,18.30
2022-08-17T01:00:09.231Z,18.20
2022-08-17T01:02:42.933Z,18.30
2022-08-17T01:05:15.204Z,18.30
2022-08-17T01:07:43.383Z,18.30
2022-08-17T01:10:58.195Z,18.40
2022-08-17T01:13:02.464Z,18.40
2022-08-17T01:15:38.308Z,18.40
2022-08-17T01:18:07.754Z,18.40
2022-08-17T01:20:48.240Z,18.40
2022-08-17T01:23:20.525Z,18.40
2022-08-17T01:25:56.862Z,18.30
2022-08-17T01:28:52.389Z,18.30
2022-08-17T01:31:12.667Z,18.20
2022-08-17T01:33:39.364Z,18.20
2022-08-17T01:36:07.247Z,18.20
2022-08-17T01:38:38.472Z,18.20
2022-08-17T01:41:15.054Z,18.20
2022-08-17T01:43:54.854Z,18.10
2022-08-17T01:46:27.046Z,18.10
2022-08-17T01:48:54.174Z,18.00
2022-08-17T01:51:21.355Z,18.00
2022-08-17T01:53:51.473Z,17.90
2022-08-17T01:56:22.379Z,17.80
2022-08-17T01:58:49.591Z,17.80
2022-08-17T02:01:19.367Z,17.80
2022-08-17T02:03:59.687Z,17.80
2022-08-17T02:06:52.930Z,17.80
2022-08-17T02:09:24.043Z,17.80
2022-08-17T02:11:53.023Z,17.80
2022-08-17T02:14:21.133Z,17.80
2022-08-17T02:16:47.797Z,17.80
2022-08-17T02:19:16.274Z,17.80
2022-08-17T02:21:45.475Z,17.80
2022-08-17T02:24:17.318Z,17.80
2022-08-17T02:26:44.123Z,17.80
2022-08-17T02:29:10.775Z,17.80
2022-08-17T02:31:37.795Z,17.80
2022-08-17T02:34:05.406Z,17.90
2022-08-17T02:36:34.079Z,17.90
2022-08-17T02:39:06.479Z,17.90
2022-08-17T02:41:33.378Z,17.90
2022-08-17T02:44:00.656Z,17.90
2022-08-17T02:46:28.245Z,17.80
2022-08-17T02:48:55.010Z,17.80
2022-08-17T02:51:21.686Z,17.50
2022-08-17T02:53:48.400Z,17.30
2022-08-17T02:56:15.176Z,17.20
2022-08-17T02:58:41.914Z,17.20
2022-08-17T03:01:10.456Z,17.30
2022-08-17T03:03:38.637Z,17.30
2022-08-17T03:06:07.621Z,17.30
2022-08-17T03:08:35.038Z,17.30
2022-08-17T03:11:01.687Z,17.30
2022-08-17T03:13:28.435Z,17.30
2022-08-17T03:15:55.211Z,17.30
2022-08-17T03:18:25.532Z,17.30
2022-08-17T03:20:54.772Z,17.30
2022-08-17T03:23:24.057Z,17.20
2022-08-17T03:25:53.123Z,17.20
2022-08-17T03:28:21.747Z,17.30
2022-08-17T03:30:48.942Z,17.20
2022-08-17T03:33:16.180Z,17.20
2022-08-17T03:35:43.103Z,17.20
2022-08-17T03:38:11.308Z,17.10
2022-08-17T03:40:56.624Z,17.10
2022-08-17T03:43:28.102Z,17.00
2022-08-17T03:46:27.363Z,17.00
2022-08-17T03:49:17.972Z,17.00
2022-08-17T03:52:03.347Z,17.10
2022-08-17T03:54:48.948Z,17.10
2022-08-17T03:57:16.593Z,17.10
2022-08-17T03:59:45.032Z,17.10
2022-08-17T04:02:34.256Z,17.10
2022-08-17T04:05:01.637Z,17.10
2022-08-17T04:07:30.577Z,17.00
2022-08-17T04:09:58.105Z,16.90
2022-08-17T04:12:25.628Z,16.90
2022-08-17T04:14:54.606Z,16.90
2022-08-17T04:17:24.303Z,17.00
2022-08-17T04:19:51.914Z,17.10
2022-08-17T04:22:32.344Z,17.30
2022-08-17T04:25:09.867Z,17.50
2022-08-17T04:27:36.690Z,17.70
2022-08-17T04:30:04.265Z,17.90
2022-08-17T04:33:04.735Z,18.10
2022-08-17T04:35:24.387Z,18.20
2022-08-17T04:37:51.263Z,18.40
2022-08-17T04:40:38.864Z,18.60
2022-08-17T04:43:09.124Z,18.90
2022-08-17T04:45:55.905Z,19.30
2022-08-17T04:48:29.609Z,19.60
2022-08-17T04:51:06.100Z,19.90
2022-08-17T04:53:32.783Z,20.10
2022-08-17T04:55:59.407Z,20.20
2022-08-17T04:58:26.283Z,20.40
2022-08-17T05:00:53.282Z,20.70
2022-08-17T05:03:20.194Z,20.90
2022-08-17T05:05:49.889Z,20.70
2022-08-17T05:08:18.954Z,20.50
2022-08-17T05:10:46.843Z,20.60
2022-08-17T05:13:25.747Z,20.70
2022-08-17T05:15:58.679Z,21.00
2022-08-17T05:18:26.247Z,21.20
2022-08-17T05:20:53.592Z,21.50
2022-08-17T05:23:22.694Z,21.90
2022-08-17T05:25:52.477Z,22.30
2022-08-17T05:28:24.112Z,22.70
2022-08-17T05:30:59.311Z,22.90
2022-08-17T05:33:28.867Z,23.10
2022-08-17T05:35:57.683Z,23.40
2022-08-17T05:38:26.486Z,23.50
2022-08-17T05:40:54.387Z,23.50
2022-08-17T05:43:26.720Z,23.60
2022-08-17T05:46:11.466Z,23.80
2022-08-17T05:48:43.328Z,24.00
2022-08-17T05:51:52.834Z,23.70
2022-08-17T05:54:39.425Z,23.60
2022-08-17T05:57:33.971Z,23.50
2022-08-17T06:00:18.377Z,23.40
2022-08-17T06:03:09.972Z,23.30
2022-08-17T06:05:45.110Z,23.30
2022-08-17T06:08:34.847Z,23.20
2022-08-17T06:11:19.955Z,23.00
2022-08-17T06:14:20.118Z,23.00
2022-08-17T06:16:52.157Z,23.40
2022-08-17T06:19:49.534Z,23.70
2022-08-17T06:22:20.000Z,23.80
2022-08-17T06:25:15.212Z,24.00
2022-08-17T06:27:45.387Z,24.30
2022-08-17T06:30:15.880Z,24.10
2022-08-17T06:32:45.649Z,24.20
2022-08-17T06:35:16.298Z,24.30
2022-08-17T06:37:59.196Z,24.80
2022-08-17T06:40:53.765Z,25.40
2022-08-17T06:43:48.112Z,26.00
2022-08-17T06:46:20.907Z,26.60
2022-08-17T06:49:02.376Z,26.70
2022-08-17T06:51:40.342Z,26.90
2022-08-17T06:54:10.220Z,27.00
2022-08-17T06:56:53.936Z,27.20
2022-08-17T06:59:54.495Z,27.00
2022-08-17T07:02:51.538Z,27.20
2022-08-17T07:05:20.972Z,27.70
2022-08-17T07:08:18.557Z,28.60
2022-08-17T07:10:54.989Z,29.30
2022-08-17T07:13:55.222Z,29.90
2022-08-17T07:16:32.459Z,29.90
2022-08-17T07:19:00.011Z,30.00
2022-08-17T07:21:39.413Z,29.80
2022-08-17T07:24:30.664Z,29.60
2022-08-17T07:27:10.080Z,29.80
2022-08-17T07:29:44.144Z,29.80
2022-08-17T07:32:14.217Z,29.80
2022-08-17T07:35:11.153Z,29.70
2022-08-17T07:37:40.901Z,29.40
2022-08-17T07:40:20.179Z,29.40
2022-08-17T07:43:22.350Z,29.20
2022-08-17T07:46:11.692Z,29.40
2022-08-17T07:48:40.740Z,30.00
2022-08-17T07:51:27.659Z,31.20
2022-08-17T07:54:13.471Z,31.70
2022-08-17T07:56:57.409Z,31.90
2022-08-17T07:59:33.725Z,32.30
2022-08-17T08:02:05.883Z,32.70
2022-08-17T08:07:28.521Z,32.90
2022-08-17T08:10:15.130Z,33.50
2022-08-17T08:12:43.412Z,33.70
2022-08-17T08:15:22.920Z,33.40
2022-08-17T08:17:52.614Z,33.90
2022-08-17T08:20:42.456Z,34.20
2022-08-17T08:23:25.596Z,34.70
2022-08-17T08:26:20.325Z,34.40
2022-08-17T08:29:08.446Z,34.00
2022-08-17T08:32:01.956Z,33.60
2022-08-17T08:34:53.468Z,33.70
2022-08-17T08:37:55.571Z,33.40
2022-08-17T08:40:25.326Z,33.20
2022-08-17T08:43:36.309Z,33.20
2022-08-17T08:46:26.527Z,33.20
2022-08-17T08:49:16.959Z,33.50
2022-08-17T08:51:56.613Z,34.00
2022-08-17T08:54:45.256Z,34.50
2022-08-17T08:57:29.196Z,34.70
2022-08-17T09:00:02.118Z,34.80
2022-08-17T09:03:07.251Z,34.60
2022-08-17T09:05:48.422Z,34.40
2022-08-17T09:08:31.743Z,34.20
2022-08-17T09:11:24.296Z,34.00
2022-08-17T09:13:54.644Z,34.00
2022-08-17T09:16:33.108Z,34.20
2022-08-17T09:19:19.687Z,34.50
2022-08-17T09:21:54.459Z,34.40
2022-08-17T09:24:37.103Z,34.50
2022-08-17T09:27:28.688Z,34.60
2022-08-17T09:30:04.927Z,34.40
2022-08-17T09:32:38.243Z,34.80
2022-08-17T09:35:36.795Z,34.90
2022-08-17T09:38:41.613Z,35.20
2022-08-17T09:41:36.055Z,35.80
2022-08-17T09:44:26.401Z,36.50
2022-08-17T09:47:05.719Z,36.50
2022-08-17T09:49:40.279Z,36.00
2022-08-17T09:52:13.520Z,36.20
2022-08-17T09:54:41.474Z,36.50
2022-08-17T09:57:30.347Z,36.70
2022-08-17T10:00:15.990Z,36.80
2022-08-17T10:03:19.802Z,36.90
2022-08-17T10:06:10.631Z,37.70
2022-08-17T10:08:53.406Z,38.50
2022-08-17T10:11:24.633Z,38.90
2022-08-17T10:14:36.914Z,38.90
2022-08-17T10:17:23.227Z,39.00
2022-08-17T10:19:57.484Z,39.10
2022-08-17T10:23:07.253Z,39.30
2022-08-17T10:25:55.982Z,38.90
2022-08-17T10:28:30.203Z,38.40
2022-08-17T10:31:30.897Z,38.40
2022-08-17T10:34:14.143Z,38.40
2022-08-17T10:37:25.249Z,38.80
2022-08-17T10:40:32.477Z,38.70
2022-08-17T10:43:12.115Z,37.70
2022-08-17T10:46:10.422Z,37.20
2022-08-17T10:48:42.566Z,37.60
2022-08-17T10:51:12.735Z,38.00
2022-08-17T10:53:43.331Z,38.20
2022-08-17T10:56:13.263Z,38.20
2022-08-17T10:58:59.329Z,37.90
2022-08-17T11:01:29.417Z,37.90
2022-08-17T11:03:58.242Z,38.50
2022-08-17T11:06:27.848Z,39.00
2022-08-17T11:09:09.315Z,39.40
2022-08-17T11:12:09.068Z,39.80
2022-08-17T11:14:39.114Z,39.90
2022-08-17T11:17:18.946Z,39.70
2022-08-17T11:19:56.694Z,40.10
2022-08-17T11:22:33.397Z,40.20
2022-08-17T11:25:15.927Z,39.80
2022-08-17T11:27:43.929Z,40.10
2022-08-17T11:30:35.977Z,40.60
2022-08-17T11:33:28.939Z,41.10
2022-08-17T11:36:18.200Z,40.70
2022-08-17T11:38:58.885Z,39.80
2022-08-17T11:42:05.542Z,39.60
2022-08-17T11:44:38.059Z,39.80
2022-08-17T11:47:42.274Z,39.90
2022-08-17T11:50:54.627Z,38.70
2022-08-17T11:53:37.214Z,38.10
2022-08-17T11:56:09.522Z,37.00
2022-08-17T11:58:41.131Z,36.60
2022-08-17T12:01:50.769Z,36.50
2022-08-17T12:04:29.113Z,36.40
2022-08-17T12:06:59.719Z,35.90
2022-08-17T12:09:31.947Z,35.70
2022-08-17T12:12:12.481Z,36.10
2022-08-17T12:15:08.801Z,36.70
2022-08-17T12:17:41.585Z,37.20
2022-08-17T12:20:28.052Z,36.00
2022-08-17T12:23:22.347Z,36.10
2022-08-17T12:26:00.910Z,36.50
2022-08-17T12:28:30.908Z,36.50
2022-08-17T12:31:05.593Z,36.60
2022-08-17T12:33:32.267Z,36.80
2022-08-17T12:36:05.531Z,36.60
2022-08-17T12:38:37.940Z,36.30
2022-08-17T12:41:26.147Z,36.20
2022-08-17T12:44:19.948Z,36.00
2022-08-17T12:46:51.605Z,35.60
2022-08-17T12:49:26.396Z,35.50
2022-08-17T12:52:04.183Z,35.90
2022-08-17T12:54:40.705Z,36.30
2022-08-17T12:57:14.247Z,36.60
2022-08-17T12:59:45.227Z,36.10
2022-08-17T13:02:21.978Z,35.30
2022-08-17T13:04:49.348Z,35.00
2022-08-17T13:07:27.931Z,34.90
2022-08-17T13:09:54.823Z,34.70
2022-08-17T13:12:34.701Z,34.30
2022-08-17T13:15:01.836Z,34.10
2022-08-17T13:17:32.341Z,33.80
2022-08-17T13:19:59.287Z,33.60
2022-08-17T13:22:27.807Z,33.50
2022-08-17T13:24:57.612Z,33.70
2022-08-17T13:27:27.422Z,33.80
2022-08-17T13:30:05.494Z,33.80
2022-08-17T13:32:39.918Z,34.00
2022-08-17T13:35:39.795Z,34.70
2022-08-17T13:38:33.676Z,35.90
2022-08-17T13:41:00.342Z,36.90
2022-08-17T13:43:44.696Z,37.40
2022-08-17T13:46:20.928Z,37.30
2022-08-17T13:49:11.439Z,36.40
2022-08-17T13:51:46.172Z,35.60
2022-08-17T13:54:21.121Z,35.10
2022-08-17T13:57:15.714Z,35.40
2022-08-17T13:59:53.422Z,35.50
2022-08-17T14:02:28.330Z,34.70
2022-08-17T14:04:55.876Z,34.20
2022-08-17T14:07:38.586Z,34.00
2022-08-17T14:10:13.804Z,34.20
2022-08-17T14:12:42.552Z,34.30
2022-08-17T14:15:12.165Z,34.30
2022-08-17T14:17:39.356Z,34.50
2022-08-17T14:20:09.797Z,34.40
2022-08-17T14:22:40.016Z,33.90
2022-08-17T14:25:08.718Z,33.60
2022-08-17T14:27:41.830Z,33.70
2022-08-17T14:30:20.286Z,33.80
2022-08-17T14:32:48.993Z,33.90
2022-08-17T14:35:16.242Z,33.80
2022-08-17T14:37:45.647Z,33.60
2022-08-17T14:40:13.788Z,33.40
2022-08-17T14:42:42.618Z,33.40
2022-08-17T14:45:31.874Z,33.30
2022-08-17T14:47:58.500Z,33.60
2022-08-17T14:50:25.201Z,34.10
2022-08-17T14:52:55.137Z,34.50
2022-08-17T14:55:22.404Z,34.40
2022-08-17T14:57:49.131Z,34.20
2022-08-17T15:00:16.603Z,34.20
2022-08-17T15:02:47.092Z,34.20
2022-08-17T15:05:16.434Z,34.30
2022-08-17T15:07:44.529Z,34.20
2022-08-17T15:10:13.578Z,34.20
2022-08-17T15:12:41.203Z,34.10
2022-08-17T15:15:10.549Z,33.90
2022-08-17T15:17:44.837Z,33.70
2022-08-17T15:20:23.774Z,33.40
2022-08-17T15:22:50.975Z,33.20
2022-08-17T15:25:19.373Z,33.10
2022-08-17T15:27:47.393Z,33.20
2022-08-17T15:30:15.466Z,33.20
2022-08-17T15:32:51.359Z,33.10
2022-08-17T15:35:27.416Z,33.10
2022-08-17T15:38:04.957Z,33.20
2022-08-17T15:40:37.867Z,33.20
2022-08-17T15:43:06.925Z,33.20
2022-08-17T15:45:33.982Z,33.30
2022-08-17T15:48:00.783Z,33.30
2022-08-17T15:50:27.440Z,33.20
2022-08-17T15:52:59.512Z,33.20
2022-08-17T15:55:28.386Z,33.20
2022-08-17T15:57:55.348Z,33.10
2022-08-17T16:00:28.082Z,33.10
2022-08-17T16:03:13.944Z,33.00
2022-08-17T16:05:42.921Z,33.00
2022-08-17T16:08:11.002Z,33.00
2022-08-17T16:10:38.016Z,32.90
2022-08-17T16:13:04.885Z,32.90
2022-08-17T16:15:32.257Z,32.90
2022-08-17T16:17:59.411Z,32.80
2022-08-17T16:20:26.340Z,32.80
2022-08-17T16:22:54.201Z,32.70
2022-08-17T16:25:38.370Z,32.70
2022-08-17T16:28:12.580Z,32.60
2022-08-17T16:30:39.643Z,32.40
2022-08-17T16:33:06.411Z,32.30
2022-08-17T16:35:33.772Z,32.10
2022-08-17T16:38:00.878Z,31.90
2022-08-17T16:40:29.370Z,31.80
2022-08-17T16:42:58.070Z,31.70
2022-08-17T16:45:28.377Z,31.60
2022-08-17T16:47:55.502Z,31.60
2022-08-17T16:50:23.690Z,31.50
2022-08-17T16:52:50.901Z,31.50
2022-08-17T16:55:21.102Z,31.40
2022-08-17T16:57:50.606Z,31.40
2022-08-17T17:00:19.314Z,31.30
2022-08-17T17:02:47.565Z,31.30
2022-08-17T17:05:59.881Z,31.20
2022-08-17T17:08:33.912Z,31.20
2022-08-17T17:11:10.849Z,31.20
2022-08-17T17:13:47.032Z,31.20
2022-08-17T17:16:28.652Z,31.00
2022-08-17T17:19:27.734Z,30.90
2022-08-17T17:22:26.094Z,30.80
2022-08-17T17:25:01.740Z,30.80
2022-08-17T17:27:38.452Z,30.70
2022-08-17T17:30:09.085Z,30.60
2022-08-17T17:32:49.279Z,30.60
2022-08-17T17:35:23.285Z,30.50
2022-08-17T17:37:51.577Z,30.40
2022-08-17T17:40:31.970Z,30.30
2022-08-17T17:43:20.489Z,30.30
2022-08-17T17:45:58.623Z,30.20
2022-08-17T17:48:45.275Z,30.10
2022-08-17T17:52:06.778Z,30.00
2022-08-17T17:54:50.338Z,29.90
2022-08-17T17:57:38.181Z,29.80
2022-08-17T18:00:23.541Z,29.70
2022-08-17T18:03:16.698Z,29.70
2022-08-17T18:05:54.764Z,29.50
2022-08-17T18:08:44.554Z,29.40
2022-08-17T18:11:25.052Z,29.30
2022-08-17T18:14:14.820Z,29.20
2022-08-17T18:16:46.427Z,29.10
2022-08-17T18:19:21.378Z,29.00
2022-08-17T18:21:54.403Z,28.90
2022-08-17T18:24:33.906Z,28.80
2022-08-17T18:27:08.665Z,28.70
2022-08-17T18:29:46.761Z,28.60
2022-08-17T18:32:18.686Z,28.40
2022-08-17T18:34:48.573Z,28.30
2022-08-17T18:37:35.859Z,28.20
2022-08-17T18:40:24.314Z,28.10
2022-08-17T18:43:12.260Z,28.00
2022-08-17T18:45:38.958Z,27.90
2022-08-17T18:48:17.652Z,27.90
2022-08-17T18:50:44.583Z,27.80
2022-08-17T18:53:34.027Z,27.70
2022-08-17T18:56:33.738Z,27.60
2022-08-17T18:59:14.811Z,27.60
2022-08-17T19:01:58.864Z,27.50
2022-08-17T19:04:35.059Z,27.40
2022-08-17T19:07:03.845Z,27.30
2022-08-17T19:09:36.592Z,27.30
2022-08-17T19:12:08.908Z,27.20
2022-08-17T19:14:36.053Z,27.20
2022-08-17T19:17:22.574Z,27.20
2022-08-17T19:20:12.840Z,27.10
2022-08-17T19:23:13.398Z,27.10
2022-08-17T19:25:48.372Z,27.00
2022-08-17T19:28:26.863Z,26.90
2022-08-17T19:31:04.430Z,26.90
2022-08-17T19:33:31.717Z,26.90
2022-08-17T19:36:27.479Z,26.80
2022-08-17T19:39:07.127Z,26.80
2022-08-17T19:41:43.078Z,26.70
2022-08-17T19:44:16.225Z,26.60
2022-08-17T19:47:06.105Z,26.50
2022-08-17T19:49:40.858Z,26.40
2022-08-17T19:52:32.451Z,26.40
2022-08-17T19:55:16.925Z,26.20
2022-08-17T19:57:57.617Z,26.00
2022-08-17T20:00:24.564Z,25.90
2022-08-17T20:03:00.015Z,25.70
2022-08-17T20:06:00.963Z,25.50
2022-08-17T20:08:45.628Z,25.30
2022-08-17T20:11:31.394Z,25.20
2022-08-17T20:14:06.842Z,25.20
2022-08-17T20:16:34.583Z,25.20
2022-08-17T20:19:43.487Z,25.20
2022-08-17T20:22:17.655Z,25.10
2022-08-17T20:24:58.432Z,25.00
2022-08-17T20:27:33.719Z,25.00
2022-08-17T20:30:00.467Z,24.80
2022-08-17T20:32:31.190Z,24.70
2022-08-17T20:35:22.543Z,24.50
2022-08-17T20:37:59.027Z,24.40
2022-08-17T20:40:36.877Z,24.20
2022-08-17T20:43:43.164Z,24.10
2022-08-17T20:46:41.310Z,24.00
2022-08-17T20:49:10.930Z,23.80
2022-08-17T20:52:02.832Z,23.70
2022-08-17T20:54:54.063Z,23.40
2022-08-17T20:57:32.949Z,23.20
2022-08-17T21:00:16.789Z,23.10
2022-08-17T21:02:46.475Z,23.10
2022-08-17T21:05:53.485Z,23.10
2022-08-17T21:08:53.331Z,23.00
2022-08-17T21:12:02.465Z,22.90
2022-08-17T21:14:26.958Z,22.90
2022-08-17T21:17:17.438Z,22.80
2022-08-17T21:20:11.376Z,22.80
2022-08-17T21:22:57.636Z,22.80
2022-08-17T21:25:37.149Z,22.70
2022-08-17T21:28:30.093Z,22.70
2022-08-17T21:31:08.399Z,22.60
2022-08-17T21:33:39.894Z,22.60
2022-08-17T21:36:12.722Z,22.60
2022-08-17T21:38:57.008Z,22.40
2022-08-17T21:41:33.749Z,22.20
2022-08-17T21:44:34.836Z,22.20
2022-08-17T21:47:24.536Z,22.10
2022-08-17T21:49:56.316Z,22.10
2022-08-17T21:52:27.341Z,22.00
2022-08-17T21:54:57.526Z,22.00
2022-08-17T21:57:27.622Z,22.00
2022-08-17T21:59:57.480Z,21.90
2022-08-17T22:02:28.301Z,21.90
2022-08-17T22:05:13.004Z,21.80
2022-08-17T22:08:16.681Z,21.80
2022-08-17T22:10:46.349Z,21.80
2022-08-17T22:13:24.351Z,21.70
2022-08-17T22:16:28.010Z,21.70
2022-08-17T22:19:00.111Z,21.70
2022-08-17T22:21:27.158Z,21.70
2022-08-17T22:24:04.316Z,21.70
2022-08-17T22:27:08.088Z,21.70
2022-08-17T22:29:54.354Z,21.60
2022-08-17T22:32:43.407Z,21.50
2022-08-17T22:35:38.495Z,21.40
2022-08-17T22:38:20.375Z,21.40
2022-08-17T22:40:52.810Z,21.40
2022-08-17T22:43:26.672Z,21.40
2022-08-17T22:45:56.518Z,21.40
2022-08-17T22:48:27.716Z,21.40
2022-08-17T22:51:12.220Z,21.40
2022-08-17T22:54:05.740Z,21.30
2022-08-17T22:56:51.328Z,21.20
2022-08-17T22:59:39.414Z,21.00
2022-08-17T23:02:28.062Z,20.80
2022-08-17T23:05:12.898Z,20.70
2022-08-17T23:07:42.404Z,20.70
2022-08-17T23:10:11.240Z,20.70
2022-08-17T23:12:40.928Z,20.70
2022-08-17T23:15:14.905Z,20.70
2022-08-17T23:17:42.001Z,20.70
2022-08-17T23:20:12.572Z,20.70
2022-08-17T23:22:51.344Z,20.70
2022-08-17T23:25:25.651Z,20.70
2022-08-17T23:27:52.533Z,20.60
2022-08-17T23:30:19.539Z,20.50
2022-08-17T23:32:53.890Z,20.40
2022-08-17T23:35:39.150Z,20.30
2022-08-17T23:38:08.671Z,20.20
2022-08-17T23:40:35.548Z,20.10
2022-08-17T23:43:09.860Z,20.10
2022-08-17T23:45:50.461Z,20.00
2022-08-17T23:48:35.159Z,20.00
2022-08-17T23:51:12.245Z,20.00
2022-08-17T23:53:45.134Z,20.00
2022-08-17T23:56:12.301Z,20.00
2022-08-17T23:58:42.305Z,19.90
